Time;durP1;ratioP1;P1;durP2;ratioP2;P2;SDS_P1;SDS_P2;PMS_P1;PMS_P2;Temp;Humidity;BMP_temperature;BMP_pressure;BME280_temperature;BME280_humidity;BME280_pressure;Samples;Min_cycle;Max_cycle;Signal;HPM_P1;HPM_P2
2020/12/01 00:02:20;;;;;;;80.77;43.97;;;1.10;95.10;;;;;;6227497;28;20068;-76
2020/12/01 00:05:24;;;;;;;77.40;45.00;;;1.10;95.30;;;;;;6227058;28;20141;-76
2020/12/01 00:08:26;;;;;;;71.90;38.57;;;1.10;95.40;;;;;;6225430;28;20054;-77
2020/12/01 00:11:28;;;;;;;75.43;38.60;;;1.20;95.50;;;;;;6225430;28;20140;-76
2020/12/01 00:14:29;;;;;;;69.03;40.07;;;1.20;95.60;;;;;;6224856;28;20458;-76
2020/12/01 00:17:30;;;;;;;82.20;41.77;;;1.20;96.00;;;;;;6224587;28;20053;-76
2020/12/01 00:20:32;;;;;;;90.27;42.90;;;1.20;96.40;;;;;;6225033;28;20191;-76
2020/12/01 00:23:34;;;;;;;77.07;44.73;;;1.20;96.70;;;;;;6225728;28;20053;-77
2020/12/01 00:26:35;;;;;;;73.43;40.70;;;1.20;96.90;;;;;;6223649;28;20037;-76
2020/12/01 00:29:36;;;;;;;73.97;41.43;;;1.20;97.10;;;;;;6224351;28;20490;-75
2020/12/01 00:32:38;;;;;;;76.70;42.57;;;1.20;97.30;;;;;;6224938;28;20132;-77
2020/12/01 00:35:39;;;;;;;66.33;39.57;;;1.20;97.50;;;;;;6224568;28;20053;-77
2020/12/01 00:38:41;;;;;;;80.03;39.50;;;1.30;97.60;;;;;;6225327;28;20185;-76
2020/12/01 00:41:43;;;;;;;69.40;38.83;;;1.30;98.00;;;;;;6222791;28;20054;-77
2020/12/01 00:44:44;;;;;;;75.17;36.03;;;1.30;97.90;;;;;;6223969;28;20451;-77
2020/12/01 00:47:45;;;;;;;63.70;34.83;;;1.40;98.00;;;;;;6223296;28;20060;-77
2020/12/01 00:50:47;;;;;;;66.83;36.10;;;1.40;97.90;;;;;;6224919;28;20188;-77
2020/12/01 00:53:49;;;;;;;79.33;40.07;;;1.40;97.90;;;;;;6224852;28;20134;-77
2020/12/01 00:56:50;;;;;;;63.20;34.13;;;1.40;98.20;;;;;;6223595;28;20053;-77
2020/12/01 00:59:51;;;;;;;68.57;37.83;;;1.50;98.30;;;;;;6223843;28;20128;-77
2020/12/01 01:02:53;;;;;;;70.90;36.37;;;1.40;98.30;;;;;;6224456;28;20050;-76
2020/12/01 01:05:54;;;;;;;69.13;38.00;;;1.50;98.40;;;;;;6223762;28;20164;-77
2020/12/01 01:08:56;;;;;;;74.57;38.20;;;1.50;98.40;;;;;;6223374;28;20046;-77
2020/12/01 01:11:57;;;;;;;80.50;44.07;;;1.40;98.40;;;;;;6222734;28;20085;-77
2020/12/01 01:14:59;;;;;;;79.17;41.17;;;1.40;98.40;;;;;;6223454;28;20050;-77
2020/12/01 01:18:01;;;;;;;82.00;43.83;;;1.40;98.40;;;;;;6222468;28;20100;-77
2020/12/01 01:21:02;;;;;;;85.90;39.80;;;1.40;98.50;;;;;;6222989;28;20084;-76
2020/12/01 01:24:04;;;;;;;82.33;40.60;;;1.40;98.50;;;;;;6223504;28;20120;-77
2020/12/01 01:27:06;;;;;;;79.33;40.73;;;1.40;98.60;;;;;;6223493;28;20192;-76
2020/12/01 01:30:08;;;;;;;78.23;41.97;;;1.40;98.60;;;;;;6223686;28;20049;-76
2020/12/01 01:33:10;;;;;;;74.83;39.77;;;1.30;98.60;;;;;;6223698;28;20046;-77
2020/12/01 01:36:11;;;;;;;81.73;40.87;;;1.40;98.70;;;;;;6223574;28;20124;-76
2020/12/01 01:39:14;;;;;;;89.93;43.43;;;1.30;98.70;;;;;;6221845;28;20273;-77
2020/12/01 01:42:15;;;;;;;78.20;39.33;;;1.40;98.70;;;;;;6223632;28;20188;-77
2020/12/01 01:45:31;;;;;;;92.97;41.70;;;1.50;98.80;;;;;;6224338;28;20180;-77
2020/12/01 01:48:33;;;;;;;93.33;39.90;;;1.40;98.70;;;;;;6224682;28;20050;-77
2020/12/01 01:51:36;;;;;;;75.97;38.20;;;1.40;98.70;;;;;;6222605;28;20046;-77
2020/12/01 01:54:38;;;;;;;81.97;39.87;;;1.40;98.80;;;;;;6222605;28;20527;-76
2020/12/01 01:57:41;;;;;;;90.50;44.00;;;1.40;98.80;;;;;;6222066;28;20073;-76
2020/12/01 02:00:57;;;;;;;78.83;40.40;;;1.50;98.80;;;;;;6221468;28;20519;-76
2020/12/01 02:04:02;;;;;;;89.47;41.73;;;1.50;98.90;;;;;;6222064;28;20117;-76
2020/12/01 02:07:05;;;;;;;83.60;44.00;;;1.50;98.90;;;;;;6221643;28;20058;-76
2020/12/01 02:10:08;;;;;;;82.63;43.87;;;1.50;99.00;;;;;;6220972;28;20123;-76
2020/12/01 02:13:12;;;;;;;81.27;41.60;;;1.50;99.00;;;;;;6219713;28;20050;-75
2020/12/01 02:16:13;;;;;;;89.20;41.77;;;1.60;99.00;;;;;;6221089;28;20053;-75
2020/12/01 02:19:18;;;;;;;83.63;41.57;;;1.60;99.10;;;;;;6222448;28;20053;-75
2020/12/01 02:22:22;;;;;;;84.77;37.67;;;1.50;99.10;;;;;;6220803;28;20046;-76
2020/12/01 02:25:24;;;;;;;85.80;41.87;;;1.60;99.20;;;;;;6221241;28;20411;-76
2020/12/01 02:28:26;;;;;;;88.17;41.93;;;1.60;99.40;;;;;;6221697;28;20049;-76
2020/12/01 02:31:28;;;;;;;88.13;39.50;;;1.60;99.40;;;;;;6221911;28;20133;-75
2020/12/01 02:34:32;;;;;;;84.23;37.50;;;1.60;99.20;;;;;;6221900;28;20183;-75
2020/12/01 02:37:34;;;;;;;80.53;41.27;;;1.70;99.20;;;;;;6222762;28;20128;-76
2020/12/01 02:40:35;;;;;;;78.87;38.10;;;1.70;99.20;;;;;;6222239;28;20047;-75
2020/12/01 02:43:37;;;;;;;87.80;38.43;;;1.70;99.20;;;;;;6223134;28;20068;-75
2020/12/01 02:46:38;;;;;;;76.63;34.97;;;1.80;99.20;;;;;;6223643;28;20049;-75
2020/12/01 02:49:40;;;;;;;76.40;38.33;;;1.80;99.30;;;;;;6222929;28;20060;-75
2020/12/01 02:52:41;;;;;;;76.93;36.37;;;1.80;99.30;;;;;;6232979;28;20101;-75
2020/12/01 02:55:43;;;;;;;92.63;37.93;;;2.10;99.40;;;;;;6253775;28;20215;-75
2020/12/01 02:58:45;;;;;;;82.27;38.77;;;1.80;99.30;;;;;;6253657;28;20057;-76
2020/12/01 03:01:47;;;;;;;90.50;41.37;;;1.80;99.30;;;;;;6252942;28;20069;-75
2020/12/01 03:04:49;;;;;;;77.77;37.70;;;1.80;99.30;;;;;;6253042;28;20030;-75
2020/12/01 03:07:50;;;;;;;84.50;39.47;;;1.80;99.30;;;;;;6251886;28;20034;-75
2020/12/01 03:10:51;;;;;;;98.60;43.53;;;1.80;99.30;;;;;;6249629;28;20050;-75
2020/12/01 03:13:53;;;;;;;92.10;40.37;;;1.80;99.30;;;;;;6216076;28;20053;-75
2020/12/01 03:16:55;;;;;;;93.37;38.97;;;1.80;99.30;;;;;;6221692;28;20129;-75
2020/12/01 03:19:56;;;;;;;90.93;39.73;;;2.00;99.90;;;;;;6219917;28;20149;-76
2020/12/01 03:22:57;;;;;;;90.23;45.13;;;1.80;99.30;;;;;;6237762;28;20078;-75
2020/12/01 03:25:59;;;;;;;97.67;41.33;;;1.80;99.40;;;;;;6223719;28;20049;-75
2020/12/01 03:29:01;;;;;;;91.13;42.70;;;1.70;99.40;;;;;;6227575;28;20515;-75
2020/12/01 03:32:02;;;;;;;89.90;39.67;;;1.70;99.40;;;;;;6226741;28;20422;-75
2020/12/01 03:35:03;;;;;;;107.57;43.13;;;1.70;99.40;;;;;;6225579;28;20193;-75
2020/12/01 03:38:05;;;;;;;110.70;44.23;;;1.80;99.50;;;;;;6225378;28;20663;-75
2020/12/01 03:41:07;;;;;;;110.63;44.57;;;1.80;99.50;;;;;;6225263;28;20470;-76
2020/12/01 03:44:09;;;;;;;99.23;45.20;;;1.70;99.40;;;;;;6225043;28;20049;-76
2020/12/01 03:47:10;;;;;;;95.77;44.20;;;1.70;99.50;;;;;;6225144;28;20046;-76
2020/12/01 03:50:13;;;;;;;110.73;41.73;;;1.80;99.50;;;;;;6224703;28;20052;-76
2020/12/01 03:53:15;;;;;;;102.47;44.60;;;1.80;99.50;;;;;;6225219;28;20183;-76
2020/12/01 03:56:19;;;;;;;93.30;42.47;;;1.80;99.50;;;;;;6224330;28;20539;-76
2020/12/01 03:59:23;;;;;;;118.60;45.97;;;1.80;99.60;;;;;;6225266;28;20053;-76
2020/12/01 04:02:24;;;;;;;115.73;49.50;;;1.80;99.60;;;;;;6224282;28;20042;-76
2020/12/01 04:05:27;;;;;;;111.57;41.77;;;1.80;99.60;;;;;;6224431;28;20634;-76
2020/12/01 04:08:28;;;;;;;110.50;46.07;;;1.80;99.60;;;;;;6224005;28;20179;-76
2020/12/01 04:11:29;;;;;;;113.40;44.40;;;1.80;99.70;;;;;;6224321;28;20053;-76
2020/12/01 04:14:31;;;;;;;107.37;45.60;;;1.80;99.70;;;;;;6223981;28;20172;-76
2020/12/01 04:17:33;;;;;;;107.70;41.87;;;1.90;99.80;;;;;;6223712;28;20129;-76
2020/12/01 04:20:34;;;;;;;125.80;48.17;;;1.90;99.70;;;;;;6223651;28;20137;-76
2020/12/01 04:23:35;;;;;;;122.80;48.37;;;1.90;99.70;;;;;;6224006;28;20184;-76
2020/12/01 04:26:37;;;;;;;115.60;49.10;;;1.80;99.70;;;;;;6223636;28;20048;-76
2020/12/01 04:29:39;;;;;;;123.83;47.93;;;1.80;99.70;;;;;;6223507;28;20050;-76
2020/12/01 04:32:41;;;;;;;120.00;43.97;;;1.90;99.80;;;;;;6223534;28;20216;-75
2020/12/01 04:35:42;;;;;;;138.13;47.40;;;1.80;99.70;;;;;;6223328;28;20053;-76
2020/12/01 04:38:43;;;;;;;112.10;44.83;;;1.90;99.80;;;;;;6223250;28;20503;-76
2020/12/01 04:41:45;;;;;;;115.47;45.77;;;1.90;99.80;;;;;;6223131;28;20101;-76
2020/12/01 04:44:55;;;;;;;122.07;47.63;;;1.90;99.80;;;;;;6222836;28;20188;-76
2020/12/01 04:48:00;;;;;;;125.33;46.20;;;1.90;99.80;;;;;;6223058;28;20427;-76
2020/12/01 04:51:11;;;;;;;137.60;50.20;;;1.90;99.80;;;;;;6223227;28;20639;-76
2020/12/01 04:54:55;;;;;;;135.23;49.77;;;1.90;99.90;;;;;;6223185;28;20133;-75
2020/12/01 04:58:21;;;;;;;126.57;48.80;;;1.90;99.90;;;;;;6223168;28;20129;-75
2020/12/01 05:01:45;;;;;;;104.40;41.53;;;2.00;99.90;;;;;;6222595;28;20049;-75
2020/12/01 05:04:55;;;;;;;121.63;49.33;;;2.00;99.90;;;;;;6222953;28;20054;-75
2020/12/01 05:08:34;;;;;;;139.67;46.37;;;2.00;99.90;;;;;;6222416;28;20050;-76
2020/12/01 05:11:44;;;;;;;124.40;47.83;;;2.00;99.90;;;;;;6222469;28;20057;-75
2020/12/01 05:14:52;;;;;;;124.87;49.43;;;2.00;99.90;;;;;;6223129;28;20427;-76
2020/12/01 05:18:11;;;;;;;120.13;46.25;;;1.90;99.90;;;;;;6222178;28;20096;-76
2020/12/01 05:21:13;;;;;;;129.10;44.50;;;1.90;99.90;;;;;;6222280;28;20125;-75
2020/12/01 05:24:14;;;;;;;134.83;45.87;;;1.90;99.90;;;;;;6222748;28;20042;-76
2020/12/01 05:27:21;;;;;;;98.53;37.20;;;1.90;99.90;;;;;;6223118;28;20054;-75
2020/12/01 05:30:24;;;;;;;129.20;47.37;;;1.90;99.90;;;;;;6221627;28;20132;-77
2020/12/01 05:33:28;;;;;;;121.80;45.67;;;1.90;99.90;;;;;;6222205;28;20068;-76
2020/12/01 05:36:31;;;;;;;135.23;46.40;;;1.80;99.90;;;;;;6221775;28;20563;-75
2020/12/01 05:39:34;;;;;;;145.57;47.10;;;1.80;99.90;;;;;;6221833;28;20411;-76
2020/12/01 05:42:42;;;;;;;136.27;48.07;;;1.80;99.90;;;;;;6222149;28;20053;-76
2020/12/01 05:45:43;;;;;;;;;;;1.80;99.90;;;;;;6221856;28;20503;-76
2020/12/01 05:48:58;;;;;;;125.60;48.53;;;1.80;99.90;;;;;;6220271;28;19921;-76
2020/12/01 05:52:05;;;;;;;132.63;46.53;;;1.70;99.90;;;;;;6221528;28;20169;-76
2020/12/01 05:55:13;;;;;;;135.50;48.37;;;1.70;99.90;;;;;;6222094;28;20056;-76
2020/12/01 05:58:15;;;;;;;128.00;45.03;;;1.60;99.90;;;;;;6221182;28;20412;-75
2020/12/01 06:01:16;;;;;;;132.60;47.03;;;1.70;99.90;;;;;;6221065;28;20133;-76
2020/12/01 06:04:22;;;;;;;142.37;54.17;;;1.50;99.90;;;;;;6221556;28;20071;-76
2020/12/01 06:07:27;;;;;;;133.77;42.60;;;1.50;99.90;;;;;;6221890;28;20050;-76
2020/12/01 06:10:35;;;;;;;149.00;51.50;;;1.50;99.90;;;;;;6220846;28;20050;-76
2020/12/01 06:13:42;;;;;;;130.02;49.75;;;1.50;99.90;;;;;;6221421;28;20057;-77
2020/12/01 06:16:49;;;;;;;127.57;44.67;;;1.60;99.90;;;;;;6221162;28;20042;-76
2020/12/01 06:20:00;;;;;;;144.73;46.27;;;1.60;99.90;;;;;;6220630;28;20193;-76
2020/12/01 06:23:26;;;;;;;140.00;45.40;;;1.60;99.90;;;;;;6221647;28;20054;-76
2020/12/01 06:27:13;;;;;;;130.47;44.37;;;1.70;99.90;;;;;;6220414;28;20184;-76
2020/12/01 06:30:46;;;;;;;122.20;44.13;;;1.70;99.90;;;;;;6220676;28;20121;-76
2020/12/01 06:34:21;;;;;;;116.20;43.07;;;1.80;99.90;;;;;;6220921;28;20046;-77
2020/12/01 06:37:46;;;;;;;122.90;41.83;;;1.80;99.90;;;;;;6217780;28;20060;-76
2020/12/01 06:40:52;;;;;;;116.63;42.13;;;1.90;99.90;;;;;;6221524;28;20137;-76
2020/12/01 06:43:56;;;;;;;104.20;40.67;;;1.80;99.90;;;;;;6222405;28;20108;-76
2020/12/01 06:46:58;;;;;;;116.30;38.17;;;1.80;99.90;;;;;;6221614;28;20046;-76
2020/12/01 06:50:04;;;;;;;100.07;40.03;;;1.90;99.90;;;;;;6220498;28;20575;-78
2020/12/01 06:53:06;;;;;;;107.17;38.63;;;1.90;99.90;;;;;;6221045;28;20066;-76
2020/12/01 06:56:16;;;;;;;114.50;42.00;;;1.90;99.90;;;;;;6219990;28;20078;-76
2020/12/01 06:59:17;;;;;;;96.90;37.93;;;1.90;99.90;;;;;;6221566;28;20488;-76
2020/12/01 07:02:26;;;;;;;113.43;38.20;;;1.90;99.90;;;;;;6224969;28;20104;-76
2020/12/01 07:05:31;;;;;;;112.50;40.77;;;1.90;99.90;;;;;;6225760;28;20045;-75
2020/12/01 07:08:33;;;;;;;113.67;38.07;;;1.90;99.90;;;;;;6225680;28;20052;-77
2020/12/01 07:11:48;;;;;;;110.83;39.30;;;1.90;99.90;;;;;;6225284;28;20079;-76
2020/12/01 07:14:57;;;;;;;107.20;38.60;;;2.00;99.90;;;;;;6226149;28;20124;-76
2020/12/01 07:18:14;;;;;;;100.37;37.83;;;2.00;99.90;;;;;;6224677;28;20803;-77
2020/12/01 07:21:23;;;;;;;101.40;38.57;;;2.10;99.90;;;;;;6226358;28;20057;-77
2020/12/01 07:24:38;;;;;;;92.37;34.93;;;2.10;99.90;;;;;;6226427;28;20046;-76
2020/12/01 07:27:51;;;;;;;102.20;37.80;;;2.20;99.90;;;;;;6224917;28;20053;-76
2020/12/01 07:30:57;;;;;;;100.70;34.23;;;2.20;99.90;;;;;;6224722;28;20193;-76
2020/12/01 07:34:02;;;;;;;104.53;37.73;;;2.20;99.90;;;;;;6225276;28;20053;-76
2020/12/01 07:37:28;;;;;;;101.23;39.90;;;2.20;99.90;;;;;;6224845;28;20125;-76
2020/12/01 07:40:41;;;;;;;88.97;37.27;;;2.20;99.90;;;;;;6224957;28;20042;-77
2020/12/01 07:43:42;;;;;;;93.87;35.73;;;2.20;99.90;;;;;;6224466;28;20072;-76
2020/12/01 07:46:52;;;;;;;104.80;36.87;;;2.20;99.90;;;;;;6225329;28;20559;-77
2020/12/01 07:50:02;;;;;;;98.47;37.53;;;2.20;99.90;;;;;;6224744;28;20045;-77
2020/12/01 07:53:07;;;;;;;104.93;36.43;;;2.30;99.90;;;;;;6224660;28;20080;-76
2020/12/01 07:56:13;;;;;;;82.37;36.03;;;2.30;99.90;;;;;;6224236;28;20494;-76
2020/12/01 07:59:15;;;;;;;97.80;35.33;;;2.30;99.90;;;;;;6224095;28;20531;-76
2020/12/01 08:02:19;;;;;;;81.67;30.00;;;2.30;99.90;;;;;;6224070;28;20057;-77
2020/12/01 08:05:23;;;;;;;74.63;30.90;;;2.30;99.90;;;;;;6224908;28;20053;-76
2020/12/01 08:08:24;;;;;;;75.77;30.97;;;2.30;99.90;;;;;;6187975;28;20054;-76
2020/12/01 08:11:26;;;;;;;80.77;32.77;;;2.30;99.90;;;;;;6223628;28;20057;-77
2020/12/01 08:14:29;;;;;;;81.33;31.57;;;2.40;99.90;;;;;;6236635;23;20057;-76
2020/12/01 08:17:34;;;;;;;80.40;31.37;;;2.40;99.90;;;;;;6209394;28;20178;-76
2020/12/01 08:20:35;;;;;;;78.07;29.23;;;2.40;99.90;;;;;;6215055;28;20042;-77
2020/12/01 08:23:37;;;;;;;77.13;32.93;;;2.40;99.90;;;;;;6248475;28;20103;-77
2020/12/01 08:26:40;;;;;;;71.00;27.90;;;2.50;99.90;;;;;;6248241;28;20130;-77
2020/12/01 08:29:45;;;;;;;94.93;31.80;;;2.50;99.90;;;;;;6247828;28;20049;-76
2020/12/01 08:32:47;;;;;;;76.43;30.03;;;2.50;99.90;;;;;;6248122;28;20145;-76
2020/12/01 08:35:54;;;;;;;77.07;31.27;;;2.60;99.90;;;;;;6248137;28;20100;-77
2020/12/01 08:39:29;;;;;;;79.17;30.10;;;2.60;99.90;;;;;;6248132;28;20136;-76
2020/12/01 08:42:42;;;;;;;79.63;31.50;;;2.60;99.90;;;;;;6233895;28;20090;-77
2020/12/01 08:45:52;;;;;;;71.63;32.33;;;2.60;99.90;;;;;;6246469;28;20639;-76
2020/12/01 08:49:06;;;;;;;69.07;28.70;;;2.60;99.90;;;;;;6242251;28;20041;-76
2020/12/01 08:52:35;;;;;;;76.77;31.20;;;2.60;99.90;;;;;;6243746;28;20485;-76
2020/12/01 08:55:44;;;;;;;71.68;29.73;;;2.70;99.90;;;;;;6245218;28;20119;-76
2020/12/01 08:58:48;;;;;;;82.57;29.13;;;2.70;99.90;;;;;;6245853;28;20054;-76
2020/12/01 09:01:50;;;;;;;70.73;28.53;;;2.70;99.90;;;;;;6244668;28;20049;-76
2020/12/01 09:04:59;;;;;;;60.20;28.60;;;2.70;99.90;;;;;;6245121;28;20519;-76
2020/12/01 09:08:34;;;;;;;69.80;27.07;;;2.80;99.90;;;;;;6245942;28;20053;-75
2020/12/01 09:19:06;;;;;;;75.43;28.50;;;2.90;99.90;;;;;;6242409;28;20051;-76
2020/12/01 09:22:08;;;;;;;65.78;26.63;;;2.90;99.90;;;;;;6242398;28;20050;-76
2020/12/01 09:25:22;;;;;;;69.47;27.40;;;2.90;99.90;;;;;;6244843;28;20053;-76
2020/12/01 09:28:25;;;;;;;64.47;27.20;;;3.00;99.90;;;;;;6245015;28;20124;-75
2020/12/01 09:31:27;;;;;;;64.50;28.33;;;3.00;99.90;;;;;;6245213;28;20132;-75
2020/12/01 09:34:33;;;;;;;63.97;27.70;;;3.00;99.90;;;;;;6244879;28;20045;-75
2020/12/01 09:37:35;;;;;;;64.93;26.03;;;3.10;99.90;;;;;;6244921;28;20041;-76
2020/12/01 09:40:37;;;;;;;60.00;28.23;;;3.10;99.90;;;;;;6244569;28;20048;-75
2020/12/01 09:43:42;;;;;;;70.13;28.77;;;3.10;99.90;;;;;;6245500;28;20538;-76
2020/12/01 09:46:51;;;;;;;51.93;25.13;;;3.10;99.90;;;;;;6245355;28;20055;-76
2020/12/01 09:49:53;;;;;;;58.77;26.50;;;3.20;99.90;;;;;;6242823;28;20065;-75
2020/12/01 09:53:18;;;;;;;68.60;26.43;;;3.20;99.90;;;;;;6244630;28;20049;-76
2020/12/01 09:59:48;;;;;;;59.77;26.50;;;3.20;99.90;;;;;;6238090;28;20073;-75
2020/12/01 10:09:46;;;;;;;58.93;27.80;;;3.30;99.90;;;;;;6243103;28;20044;-76
2020/12/01 10:12:55;;;;;;;58.47;25.77;;;3.30;99.90;;;;;;6238959;28;20143;-76
2020/12/01 10:36:18;;;;;;;58.67;29.33;;;3.40;99.90;;;;;;6238883;28;20655;-75
2020/12/01 10:39:20;;;;;;;56.95;22.88;;;3.40;99.90;;;;;;6219279;28;20041;-75
2020/12/01 10:42:22;;;;;;;62.53;26.70;;;3.40;99.90;;;;;;6244474;28;20128;-78
2020/12/01 10:45:25;;;;;;;66.87;28.77;;;3.40;99.90;;;;;;6243765;28;20049;-76
2020/12/01 10:48:27;;;;;;;63.00;27.87;;;3.40;99.90;;;;;;6244058;28;20491;-77
2020/12/01 10:51:28;;;;;;;66.43;27.53;;;3.40;99.90;;;;;;6243551;28;20042;-76
2020/12/01 10:54:30;;;;;;;67.37;30.23;;;3.40;99.90;;;;;;6245015;28;20045;-77
2020/12/01 10:57:32;;;;;;;68.37;28.00;;;3.50;99.90;;;;;;6244009;28;20045;-77
2020/12/01 11:00:33;;;;;;;66.50;30.23;;;3.50;99.90;;;;;;6243144;28;20446;-77
2020/12/01 11:03:35;;;;;;;55.10;26.27;;;3.50;99.90;;;;;;6242982;28;20120;-76
2020/12/01 11:06:36;;;;;;;60.97;27.67;;;3.30;99.90;;;;;;6243126;28;20136;-77
2020/12/01 11:09:38;;;;;;;55.03;26.27;;;3.30;99.90;;;;;;6244035;28;20053;-76
2020/12/01 11:12:40;;;;;;;59.47;27.13;;;3.30;99.90;;;;;;6243789;28;20148;-76
2020/12/01 11:15:41;;;;;;;64.80;28.83;;;3.30;99.90;;;;;;6218890;28;20124;-76
2020/12/01 11:18:42;;;;;;;58.57;27.50;;;3.30;99.90;;;;;;6243600;28;20191;-76
2020/12/01 11:21:44;;;;;;;55.77;24.83;;;3.40;99.90;;;;;;6243888;28;20073;-76
2020/12/01 11:24:46;;;;;;;56.03;26.90;;;3.40;99.90;;;;;;6243439;28;20045;-76
2020/12/01 11:27:48;;;;;;;47.70;23.83;;;3.40;99.90;;;;;;6245252;28;20041;-77
2020/12/01 11:30:49;;;;;;;53.90;26.43;;;3.40;99.90;;;;;;6244142;28;20179;-77
2020/12/01 11:34:03;;;;;;;58.17;28.43;;;3.50;99.90;;;;;;6245259;28;20053;-77
2020/12/01 11:37:04;;;;;;;60.07;29.43;;;3.50;99.90;;;;;;6244252;28;20399;-77
2020/12/01 11:40:08;;;;;;;74.37;27.07;;;3.40;99.90;;;;;;6244176;28;20046;-77
2020/12/01 11:43:09;;;;;;;55.57;25.70;;;3.40;99.90;;;;;;6243582;28;20059;-76
2020/12/01 11:46:11;;;;;;;54.23;25.50;;;3.40;99.90;;;;;;6245324;28;20045;-77
2020/12/01 11:49:12;;;;;;;59.97;26.27;;;3.40;99.90;;;;;;6249959;28;20200;-76
2020/12/01 11:52:13;;;;;;;61.20;24.73;;;3.40;99.90;;;;;;6248964;28;20046;-76
2020/12/01 11:55:16;;;;;;;56.37;26.70;;;3.50;99.90;;;;;;6248566;28;20115;-76
2020/12/01 11:58:17;;;;;;;43.00;24.40;;;3.50;99.90;;;;;;6249258;28;20049;-76
2020/12/01 12:01:19;;;;;;;52.97;26.43;;;3.50;99.90;;;;;;6248884;28;20049;-77
2020/12/01 12:04:20;;;;;;;51.13;22.77;;;3.50;99.90;;;;;;6248489;28;20068;-76
2020/12/01 12:07:21;;;;;;;45.90;22.00;;;3.50;99.90;;;;;;6249171;28;20121;-76
2020/12/01 12:10:23;;;;;;;48.73;23.57;;;3.50;99.90;;;;;;6248174;28;20053;-77
2020/12/01 12:13:25;;;;;;;44.00;21.47;;;3.50;99.90;;;;;;6248261;28;20125;-78
2020/12/01 12:16:27;;;;;;;47.37;21.63;;;3.50;99.90;;;;;;6249008;28;20042;-77
2020/12/01 12:19:28;;;;;;;50.40;21.53;;;3.50;99.90;;;;;;6248742;28;20123;-77
2020/12/01 12:22:30;;;;;;;48.10;21.83;;;3.50;99.90;;;;;;6249221;28;20053;-76
2020/12/01 12:25:32;;;;;;;53.83;23.23;;;3.50;99.90;;;;;;6248707;28;20549;-77
2020/12/01 12:28:33;;;;;;;41.17;22.83;;;3.50;99.90;;;;;;6249060;28;20456;-77
2020/12/01 12:31:35;;;;;;;61.37;23.50;;;3.50;99.90;;;;;;6248857;28;20175;-77
2020/12/01 12:34:36;;;;;;;43.33;23.60;;;3.60;99.90;;;;;;6248028;28;20049;-77
2020/12/01 12:37:37;;;;;;;45.93;21.90;;;3.60;99.90;;;;;;6248361;28;20179;-77
2020/12/01 12:40:40;;;;;;;48.90;22.90;;;3.60;99.90;;;;;;6247946;28;20132;-77
2020/12/01 12:43:41;;;;;;;47.37;21.10;;;3.60;99.90;;;;;;6248051;28;20187;-78
2020/12/01 12:46:42;;;;;;;49.23;27.30;;;3.60;99.90;;;;;;6249199;28;20045;-77
2020/12/01 12:49:43;;;;;;;41.97;20.40;;;3.60;99.90;;;;;;6248212;28;20057;-77
2020/12/01 12:52:45;;;;;;;71.17;40.30;;;3.70;99.90;;;;;;6248455;28;20045;-77
2020/12/01 12:55:47;;;;;;;48.90;22.47;;;3.70;99.90;;;;;;6247703;28;20140;-77
2020/12/01 12:58:48;;;;;;;51.70;22.77;;;3.70;99.90;;;;;;6248046;28;20140;-77
2020/12/01 13:01:50;;;;;;;54.90;26.43;;;3.70;99.90;;;;;;6249085;28;20045;-77
2020/12/01 13:04:51;;;;;;;34.63;20.70;;;3.70;99.90;;;;;;6247969;28;20057;-77
2020/12/01 13:07:53;;;;;;;46.77;23.63;;;3.70;99.90;;;;;;6246178;28;20183;-77
2020/12/01 13:10:55;;;;;;;45.10;22.80;;;3.70;99.90;;;;;;6247439;28;20096;-77
2020/12/01 13:13:57;;;;;;;38.90;20.77;;;3.70;99.90;;;;;;6240147;28;20159;-77
2020/12/01 13:16:58;;;;;;;44.63;22.03;;;3.70;99.90;;;;;;6246954;28;20038;-77
2020/12/01 13:19:59;;;;;;;40.37;19.70;;;3.70;99.90;;;;;;6245798;28;20052;-77
2020/12/01 13:23:01;;;;;;;43.90;21.47;;;3.70;99.90;;;;;;6247560;28;20582;-78
2020/12/01 13:26:03;;;;;;;43.57;20.87;;;3.70;99.90;;;;;;6248381;28;20053;-77
2020/12/01 13:29:05;;;;;;;52.70;24.73;;;3.60;99.90;;;;;;6246472;28;20049;-77
2020/12/01 13:32:07;;;;;;;45.87;23.50;;;3.70;99.90;;;;;;6246985;28;20120;-77
2020/12/01 13:35:09;;;;;;;50.57;29.80;;;3.70;99.90;;;;;;6247411;28;20048;-77
2020/12/01 13:38:10;;;;;;;44.87;25.10;;;3.70;99.90;;;;;;6249145;28;20183;-77
2020/12/01 13:41:13;;;;;;;39.93;20.50;;;3.70;99.90;;;;;;6247735;28;20087;-77
2020/12/01 13:44:14;;;;;;;46.10;22.20;;;3.70;99.90;;;;;;6247826;28;20099;-77
2020/12/01 13:47:15;;;;;;;48.87;21.37;;;3.80;99.90;;;;;;6249060;28;20507;-78
2020/12/01 13:50:20;;;;;;;54.80;27.43;;;3.80;99.90;;;;;;6246412;28;20045;-78
2020/12/01 13:53:22;;;;;;;81.90;47.43;;;3.80;99.90;;;;;;6247277;28;20121;-77
2020/12/01 13:56:24;;;;;;;74.53;41.27;;;3.80;99.90;;;;;;6249089;28;20060;-77
2020/12/01 13:59:25;;;;;;;59.60;32.67;;;3.90;99.90;;;;;;6247973;28;20124;-77
2020/12/01 14:02:27;;;;;;;47.57;24.40;;;3.80;99.90;;;;;;6247643;28;20057;-77
2020/12/01 14:05:28;;;;;;;68.20;40.73;;;3.80;99.90;;;;;;6246796;28;20111;-77
2020/12/01 14:08:30;;;;;;;61.90;27.80;;;3.80;99.90;;;;;;6247707;28;20123;-77
2020/12/01 14:11:32;;;;;;;35.93;20.70;;;3.80;99.90;;;;;;6246508;28;20057;-77
2020/12/01 14:14:33;;;;;;;56.53;32.63;;;3.80;99.90;;;;;;6244310;23;20137;-75
2020/12/01 14:17:35;;;;;;;44.00;21.83;;;3.80;99.90;;;;;;6219069;28;20045;-75
2020/12/01 14:20:36;;;;;;;38.97;19.80;;;3.90;99.90;;;;;;6201341;28;20068;-74
2020/12/01 14:23:38;;;;;;;41.03;20.57;;;3.90;99.90;;;;;;6209726;28;20144;-75
2020/12/01 14:26:40;;;;;;;42.80;21.30;;;3.90;99.90;;;;;;6243813;28;20052;-75
2020/12/01 14:29:41;;;;;;;33.93;19.77;;;3.80;99.90;;;;;;6243738;28;20176;-75
2020/12/01 14:32:42;;;;;;;48.27;27.57;;;3.90;99.90;;;;;;6243316;28;20136;-75
2020/12/01 14:35:44;;;;;;;43.90;22.20;;;3.80;99.90;;;;;;6243475;28;20037;-75
2020/12/01 14:38:45;;;;;;;39.97;20.60;;;3.90;99.90;;;;;;6243623;28;20419;-75
2020/12/01 14:41:59;;;;;;;39.90;21.73;;;3.90;99.90;;;;;;6244761;28;20663;-75
2020/12/01 14:45:00;;;;;;;38.90;21.10;;;4.00;99.90;;;;;;6241113;28;20050;-75
2020/12/01 14:48:29;;;;;;;42.00;20.67;;;4.00;99.90;;;;;;6243769;28;20063;-75
2020/12/01 14:51:47;;;;;;;38.07;20.80;;;3.90;99.90;;;;;;6236855;28;20478;-75
2020/12/01 14:55:06;;;;;;;32.60;18.90;;;4.00;99.90;;;;;;6239436;28;20048;-75
2020/12/01 14:58:33;;;;;;;34.23;18.17;;;4.00;99.90;;;;;;6242783;28;20053;-75
2020/12/01 15:01:45;;;;;;;37.07;19.17;;;4.10;99.90;;;;;;6242634;28;20045;-75
2020/12/01 15:05:16;;;;;;;33.90;17.73;;;4.00;99.90;;;;;;6242137;28;20124;-75
2020/12/01 15:09:05;;;;;;;35.93;18.60;;;4.00;99.90;;;;;;6240067;28;20443;-75
2020/12/01 15:12:20;;;;;;;28.80;16.87;;;4.00;99.90;;;;;;6242289;28;20050;-75
2020/12/01 15:15:26;;;;;;;38.57;19.87;;;4.00;99.90;;;;;;6240581;28;20038;-75
2020/12/01 15:18:28;;;;;;;39.73;18.70;;;4.00;99.90;;;;;;6243008;28;20140;-75
2020/12/01 15:21:40;;;;;;;26.90;16.57;;;4.00;99.90;;;;;;6245801;28;20096;-75
2020/12/01 15:24:42;;;;;;;23.97;16.20;;;4.00;99.90;;;;;;6245160;28;20100;-75
2020/12/01 15:27:44;;;;;;;24.90;16.07;;;4.00;99.90;;;;;;6247615;28;20658;-74
2020/12/01 15:30:46;;;;;;;30.17;18.17;;;4.00;99.90;;;;;;6247578;28;20098;-74
2020/12/01 15:33:50;;;;;;;37.03;20.27;;;4.00;99.90;;;;;;6247922;28;20045;-74
2020/12/01 15:36:51;;;;;;;27.03;16.20;;;4.00;99.90;;;;;;6247396;28;20045;-75
2020/12/01 15:39:52;;;;;;;31.63;18.57;;;4.10;99.90;;;;;;6248441;28;20074;-75
2020/12/01 15:42:55;;;;;;;30.03;16.37;;;4.10;99.90;;;;;;6247320;28;20132;-75
2020/12/01 15:46:00;;;;;;;26.27;16.40;;;4.20;99.90;;;;;;6247336;28;20596;-76
2020/12/01 15:49:02;;;;;;;31.63;17.70;;;4.20;99.90;;;;;;6247084;28;20050;-75
2020/12/01 15:52:22;;;;;;;27.63;18.73;;;4.20;99.90;;;;;;6247202;28;20041;-74
2020/12/01 15:55:34;;;;;;;29.70;17.57;;;4.20;99.90;;;;;;6247063;28;20128;-75
2020/12/01 15:59:16;;;;;;;37.27;20.23;;;4.20;99.90;;;;;;6247399;28;20686;-74
2020/12/01 16:02:35;;;;;;;33.07;21.53;;;4.20;99.90;;;;;;6247225;28;20115;-76
2020/12/01 16:05:44;;;;;;;33.03;19.83;;;4.20;99.90;;;;;;6245444;28;20062;-74
2020/12/01 16:09:16;;;;;;;29.70;18.90;;;4.20;99.90;;;;;;6246880;28;20132;-75
2020/12/01 16:12:37;;;;;;;31.10;19.17;;;4.10;99.90;;;;;;6244256;28;20187;-74
2020/12/01 16:15:53;;;;;;;34.33;21.37;;;4.10;99.90;;;;;;6243759;28;20068;-76
2020/12/01 16:19:04;;;;;;;38.40;22.73;;;4.10;99.90;;;;;;6246578;28;20073;-77
2020/12/01 16:22:06;;;;;;;40.43;20.47;;;4.10;99.90;;;;;;6245420;28;20052;-77
2020/12/01 16:25:10;;;;;;;28.50;19.03;;;4.10;99.90;;;;;;6246010;28;20041;-76
2020/12/01 16:28:23;;;;;;;30.47;19.63;;;4.10;99.90;;;;;;6246227;28;20154;-76
2020/12/01 16:31:25;;;;;;;38.83;22.83;;;4.10;99.90;;;;;;6244142;28;20167;-77